SKVP/VUP METAR and TAF weather

Enter ICAO airport designator
Station Type Date Time Source
SKVP METAR 2019/06/17 04:00 UTC NOAA

SKVP 170400Z 06013KT 9999 FEW015 BKN200 29/23 A2991


Station Type Date Time Source
SKVP Decoded METAR 2019/06/17 04:00 UTC NOAA

Valledupar / Alfonso Lopez, Colombia (SKVP) 10-26N 073-15W
Jun 17, 2019 - 12:00 AM EDT / 2019.06.17 0400 UTC
Wind: from the ENE (060 degrees) at 15 MPH (13 KT):0
Visibility: greater than 7 mile(s):0
Sky conditions: mostly cloudy
Temperature: 84 F (29 C)
Dew Point: 73 F (23 C)
Relative Humidity: 70%
Pressure (altimeter): 29.91 in. Hg (1012 hPa)
ob: SKVP 170400Z 06013KT 9999 FEW015 BKN200 29/23 A2991
cycle: 4

Station Type Date Time Source
SKVP TAF UTC NOAA

Error!

Example: see airport list